New Johannesburg, Wisconsin
Current Conditions -  °F | °C
As of 11:55 PM on Sunday 19 Oct 2014 (Local Time) from KRNH Reporting Station
Clear Clear  
Wind Chill: 10°   Ceiling: Unl
Heat Index: 10°   Visibility: 10mi
Dew Point:   Wind: 8mph
Humidity: 71%   Direction: 320°NW
Pressure: 29.84"   Gusts: NA
Location:  45.1804°N, 92.551°W
Report Text: KRNH 200455Z AUTO 32007KT 10SM CLR 10/05 A2984 RMK AO2 T01000050
Loading
Personal Weather Stations






























Interactive Weather Map
Tropical Storm Tracking
New forecast layout! Learn more

10-Day Weather Forecast

Advertisements
Track Severe Weather on mobile